createdAt,value
2024-03-02T00:01:37.514Z,2.53
2024-03-02T00:04:09.121Z,2.30
2024-03-02T00:06:36.309Z,2.15
2024-03-02T00:09:04.067Z,2.35
2024-03-02T00:11:31.285Z,3.20
2024-03-02T00:13:58.147Z,1.98
2024-03-02T00:16:25.649Z,2.10
2024-03-02T00:18:52.697Z,2.38
2024-03-02T00:21:22.612Z,2.20
2024-03-02T00:23:53.246Z,1.90
2024-03-02T00:26:20.584Z,2.20
2024-03-02T00:28:47.756Z,2.20
2024-03-02T00:31:15.233Z,2.35
2024-03-02T00:33:45.480Z,2.15
2024-03-02T00:36:15.096Z,1.77
2024-03-02T00:38:54.577Z,1.52
2024-03-02T00:41:34.785Z,1.67
2024-03-02T00:44:09.557Z,2.03
2024-03-02T00:46:45.657Z,1.60
2024-03-02T00:49:21.250Z,2.00
2024-03-02T00:51:52.635Z,1.88
2024-03-02T00:54:25.782Z,3.10
2024-03-02T00:56:53.630Z,1.95
2024-03-02T00:59:20.488Z,2.03
2024-03-02T01:01:48.636Z,2.15
2024-03-02T01:04:15.591Z,1.55
2024-03-02T01:06:44.740Z,1.63
2024-03-02T01:09:13.960Z,1.52
2024-03-02T01:11:41.121Z,1.55
2024-03-02T01:14:07.965Z,2.05
2024-03-02T01:16:34.801Z,1.42
2024-03-02T01:19:01.834Z,1.75
2024-03-02T01:21:28.880Z,1.92
2024-03-02T01:23:55.785Z,1.70
2024-03-02T01:26:22.662Z,1.80
2024-03-02T01:28:49.903Z,1.60
2024-03-02T01:31:16.789Z,1.73
2024-03-02T01:33:44.016Z,1.40
2024-03-02T01:36:10.911Z,1.55
2024-03-02T01:38:37.878Z,1.60
2024-03-02T01:41:05.026Z,1.65
2024-03-02T01:43:32.087Z,1.77
2024-03-02T01:45:59.092Z,1.75
2024-03-02T01:48:26.085Z,1.83
2024-03-02T01:50:52.930Z,1.65
2024-03-02T01:53:20.556Z,1.90
2024-03-02T01:55:47.782Z,1.55
2024-03-02T01:58:14.958Z,1.75
2024-03-02T02:00:42.098Z,1.60
2024-03-02T02:03:09.190Z,2.00
2024-03-02T02:05:36.643Z,1.85
2024-03-02T02:08:03.766Z,1.60
2024-03-02T02:10:30.712Z,2.00
2024-03-02T02:12:58.287Z,2.22
2024-03-02T02:15:29.138Z,2.05
2024-03-02T02:17:57.547Z,1.83
2024-03-02T02:20:25.669Z,1.88
2024-03-02T02:23:11.186Z,2.35
2024-03-02T02:25:38.352Z,2.00
2024-03-02T02:28:05.595Z,1.60
2024-03-02T02:30:33.563Z,1.63
2024-03-02T02:33:01.211Z,1.90
2024-03-02T02:35:28.257Z,1.92
2024-03-02T02:37:56.963Z,1.83
2024-03-02T02:40:24.385Z,1.67
2024-03-02T02:42:53.639Z,1.80
2024-03-02T02:45:21.141Z,1.65
2024-03-02T02:47:48.228Z,1.80
2024-03-02T02:50:15.241Z,1.55
2024-03-02T02:52:43.592Z,1.50
2024-03-02T02:55:12.394Z,1.40
2024-03-02T02:57:41.588Z,1.83
2024-03-02T03:00:18.123Z,2.03
2024-03-02T03:02:50.196Z,2.10
2024-03-02T03:05:18.475Z,1.80
2024-03-02T03:07:46.212Z,1.65
2024-03-02T03:10:14.636Z,2.33
2024-03-02T03:12:44.200Z,1.83
2024-03-02T03:15:12.686Z,2.00
2024-03-02T03:17:39.708Z,1.50
2024-03-02T03:20:10.928Z,1.92
2024-03-02T03:22:38.965Z,1.50
2024-03-02T03:25:06.626Z,1.70
2024-03-02T03:27:33.606Z,1.83
2024-03-02T03:30:00.571Z,1.80
2024-03-02T03:32:27.554Z,1.25
2024-03-02T03:34:54.440Z,1.30
2024-03-02T03:37:21.380Z,1.27
2024-03-02T03:39:48.228Z,1.40
2024-03-02T03:42:15.154Z,1.45
2024-03-02T03:44:43.153Z,1.65
2024-03-02T03:47:10.281Z,1.20
2024-03-02T03:49:37.203Z,1.70
2024-03-02T03:52:05.297Z,1.45
2024-03-02T03:54:32.220Z,1.50
2024-03-02T03:57:00.674Z,1.30
2024-03-02T03:59:27.524Z,1.50
2024-03-02T04:01:54.731Z,1.70
2024-03-02T04:04:21.612Z,1.35
2024-03-02T04:06:48.438Z,1.70
2024-03-02T04:09:15.397Z,1.90
2024-03-02T04:11:42.267Z,1.60
2024-03-02T04:14:09.407Z,1.65
2024-03-02T04:16:36.253Z,1.90
2024-03-02T04:19:03.558Z,2.50
2024-03-02T04:21:30.668Z,2.53
2024-03-02T04:23:59.743Z,2.72
2024-03-02T04:26:27.575Z,2.40
2024-03-02T04:28:55.432Z,3.10
2024-03-02T04:31:22.688Z,2.88
2024-03-02T04:33:49.601Z,4.82
2024-03-02T04:36:16.666Z,3.60
2024-03-02T04:38:43.763Z,3.30
2024-03-02T04:41:11.230Z,2.08
2024-03-02T04:43:38.238Z,2.47
2024-03-02T04:46:06.403Z,2.70
2024-03-02T04:48:33.413Z,2.58
2024-03-02T04:51:00.347Z,4.57
2024-03-02T04:53:27.145Z,4.60
2024-03-02T04:56:19.748Z,4.72
2024-03-02T04:58:46.732Z,5.50
2024-03-02T05:01:13.837Z,5.85
2024-03-02T05:03:40.918Z,6.50
2024-03-02T05:06:07.827Z,6.90
2024-03-02T05:08:34.700Z,8.52
2024-03-02T05:11:21.644Z,5.80
2024-03-02T05:13:48.616Z,6.50
2024-03-02T05:16:15.553Z,6.80
2024-03-02T05:18:42.482Z,7.20
2024-03-02T05:21:09.440Z,6.38
2024-03-02T05:23:36.281Z,7.40
2024-03-02T05:26:03.453Z,6.40
2024-03-02T05:28:30.617Z,4.72
2024-03-02T05:30:57.600Z,4.53
2024-03-02T05:33:24.823Z,3.92
2024-03-02T05:35:51.747Z,3.72
2024-03-02T05:38:18.653Z,4.43
2024-03-02T05:40:45.627Z,4.50
2024-03-02T05:43:12.971Z,5.55
2024-03-02T05:45:40.817Z,6.10
2024-03-02T05:48:08.941Z,6.13
2024-03-02T05:50:35.999Z,5.38
2024-03-02T05:53:02.950Z,5.97
2024-03-02T05:55:29.730Z,6.47
2024-03-02T05:57:59.566Z,6.20
2024-03-02T06:00:26.711Z,6.45
2024-03-02T06:02:53.585Z,4.60
2024-03-02T06:05:21.034Z,4.25
2024-03-02T06:07:47.874Z,3.90
2024-03-02T06:10:15.848Z,4.35
2024-03-02T06:12:43.065Z,5.45
2024-03-02T06:15:11.024Z,4.88
2024-03-02T06:17:37.967Z,5.03
2024-03-02T06:20:05.477Z,5.45
2024-03-02T06:22:32.403Z,5.28
2024-03-02T06:24:59.526Z,5.47
2024-03-02T06:27:26.532Z,5.65
2024-03-02T06:29:53.447Z,5.25
2024-03-02T06:32:20.326Z,5.53
2024-03-02T06:34:47.284Z,3.95
2024-03-02T06:37:14.246Z,6.03
2024-03-02T06:39:41.094Z,6.38
2024-03-02T06:42:08.018Z,7.55
2024-03-02T06:44:35.655Z,7.32
2024-03-02T06:47:02.554Z,7.35
2024-03-02T06:49:29.484Z,6.40
2024-03-02T06:51:56.924Z,5.57
2024-03-02T06:54:23.887Z,5.20
2024-03-02T06:56:50.853Z,4.53
2024-03-02T06:59:17.746Z,4.65
2024-03-02T07:01:45.169Z,6.28
2024-03-02T07:04:12.348Z,7.43
2024-03-02T07:06:39.253Z,7.03
2024-03-02T07:09:06.167Z,7.95
2024-03-02T07:11:33.123Z,7.72
2024-03-02T07:14:00.024Z,8.43
2024-03-02T07:16:31.007Z,8.68
2024-03-02T07:18:58.393Z,7.85
2024-03-02T07:21:25.350Z,9.57
2024-03-02T07:23:52.837Z,11.10
2024-03-02T07:28:50.782Z,15.25
2024-03-02T07:31:17.777Z,12.13
2024-03-02T07:33:48.361Z,12.35
2024-03-02T07:36:15.524Z,12.55
2024-03-02T07:38:44.012Z,13.32
2024-03-02T07:41:12.398Z,12.77
2024-03-02T07:43:39.548Z,16.35
2024-03-02T07:46:07.418Z,14.93
2024-03-02T07:48:34.377Z,15.10
2024-03-02T07:51:03.183Z,15.88
2024-03-02T07:53:30.346Z,14.73
2024-03-02T07:56:02.918Z,14.98
2024-03-02T07:58:31.445Z,15.15
2024-03-02T08:00:59.031Z,18.40
2024-03-02T08:03:26.326Z,17.48
2024-03-02T08:05:53.991Z,18.60
2024-03-02T08:08:21.501Z,18.85
2024-03-02T08:10:48.480Z,18.38
2024-03-02T08:13:15.551Z,18.83
2024-03-02T08:15:42.703Z,18.17
2024-03-02T08:18:09.976Z,19.67
2024-03-02T08:20:36.974Z,17.67
2024-03-02T08:23:03.996Z,16.77
2024-03-02T08:25:30.960Z,16.10
2024-03-02T08:27:58.628Z,16.65
2024-03-02T08:30:25.959Z,15.77
2024-03-02T08:32:52.942Z,17.23
2024-03-02T08:35:20.161Z,15.68
2024-03-02T08:37:47.059Z,17.17
2024-03-02T08:40:17.655Z,15.60
2024-03-02T08:42:46.780Z,15.20
2024-03-02T08:45:14.190Z,15.38
2024-03-02T08:47:41.067Z,14.00
2024-03-02T08:50:09.736Z,14.15
2024-03-02T08:52:37.451Z,14.45
2024-03-02T08:55:04.898Z,14.35
2024-03-02T08:57:32.825Z,14.95
2024-03-02T09:00:00.338Z,15.60
2024-03-02T09:02:28.410Z,15.23
2024-03-02T09:04:55.682Z,15.63
2024-03-02T09:07:22.545Z,15.32
2024-03-02T09:09:49.460Z,15.27
2024-03-02T09:12:16.858Z,15.02
2024-03-02T09:14:43.948Z,14.90
2024-03-02T09:17:12.985Z,14.48
2024-03-02T09:19:40.888Z,13.77
2024-03-02T09:22:08.168Z,14.02
2024-03-02T09:24:35.211Z,14.75
2024-03-02T09:27:02.234Z,14.63
2024-03-02T09:29:29.641Z,14.13
2024-03-02T09:31:56.980Z,16.10
2024-03-02T09:34:24.185Z,17.13
2024-03-02T09:36:53.630Z,16.00
2024-03-02T09:39:20.877Z,15.73
2024-03-02T09:41:49.620Z,15.65
2024-03-02T09:44:16.699Z,14.98
2024-03-02T09:46:45.388Z,14.52
2024-03-02T09:49:12.919Z,16.77
2024-03-02T09:51:40.946Z,15.35
2024-03-02T09:54:17.940Z,16.23
2024-03-02T09:56:49.007Z,15.55
2024-03-02T09:59:18.575Z,15.00
2024-03-02T10:02:05.019Z,14.70
2024-03-02T10:04:33.021Z,15.00
2024-03-02T10:07:15.095Z,14.43
2024-03-02T10:09:43.645Z,15.63
2024-03-02T10:12:15.312Z,14.93
2024-03-02T10:14:42.669Z,16.08
2024-03-02T10:17:11.353Z,14.32
2024-03-02T10:19:40.225Z,15.00
2024-03-02T10:22:09.815Z,14.38
2024-03-02T10:24:41.957Z,14.80
2024-03-02T10:27:18.954Z,14.40
2024-03-02T10:29:49.590Z,15.15
2024-03-02T10:32:17.319Z,15.88
2024-03-02T10:34:51.298Z,13.85
2024-03-02T10:37:20.925Z,13.55
2024-03-02T10:39:49.209Z,13.55
2024-03-02T10:42:17.166Z,13.85
2024-03-02T10:44:44.515Z,13.05
2024-03-02T10:47:15.103Z,12.23
2024-03-02T10:49:44.213Z,11.90
2024-03-02T10:52:11.344Z,11.77
2024-03-02T10:54:40.971Z,13.48
2024-03-02T10:57:11.407Z,14.60
2024-03-02T10:59:44.121Z,14.38
2024-03-02T11:02:13.583Z,12.70
2024-03-02T11:04:42.071Z,11.75
2024-03-02T11:07:11.886Z,11.55
2024-03-02T11:09:43.234Z,11.77
2024-03-02T11:12:49.471Z,11.43
2024-03-02T11:15:22.655Z,12.77
2024-03-02T11:17:50.674Z,9.90
2024-03-02T11:20:18.548Z,8.60
2024-03-02T11:22:45.602Z,7.55
2024-03-02T11:25:32.758Z,6.18
2024-03-02T11:28:04.888Z,6.68
2024-03-02T11:30:35.630Z,6.65
2024-03-02T11:33:12.285Z,6.60
2024-03-02T11:35:48.221Z,6.30
2024-03-02T11:38:15.370Z,4.97
2024-03-02T11:40:42.926Z,5.43
2024-03-02T11:43:11.164Z,5.70
2024-03-02T11:45:43.582Z,5.53
2024-03-02T11:48:14.259Z,5.38
2024-03-02T11:50:50.182Z,5.00
2024-03-02T11:53:18.476Z,5.68
2024-03-02T11:55:48.948Z,5.40
2024-03-02T11:58:25.946Z,5.63
2024-03-02T12:00:53.497Z,4.53
2024-03-02T12:03:24.237Z,5.15
2024-03-02T12:05:51.741Z,5.05
2024-03-02T12:08:19.030Z,5.22
2024-03-02T12:11:02.629Z,4.68
2024-03-02T12:13:32.207Z,4.75
2024-03-02T12:15:59.606Z,4.47
2024-03-02T12:18:27.286Z,5.25
2024-03-02T12:20:58.817Z,4.65
2024-03-02T12:23:26.684Z,6.18
2024-03-02T12:25:53.870Z,4.55
2024-03-02T12:28:21.472Z,4.30
2024-03-02T12:30:49.360Z,4.78
2024-03-02T12:33:16.596Z,4.03
2024-03-02T12:35:43.919Z,3.50
2024-03-02T12:38:12.291Z,3.85
2024-03-02T12:40:39.569Z,3.80
2024-03-02T12:43:08.012Z,3.50
2024-03-02T12:45:36.808Z,4.22
2024-03-02T12:48:05.333Z,3.70
2024-03-02T12:50:32.425Z,3.13
2024-03-02T12:52:59.296Z,3.45
2024-03-02T12:55:26.714Z,3.53
2024-03-02T12:57:54.703Z,3.22
2024-03-02T13:00:23.993Z,3.00
2024-03-02T13:02:52.907Z,3.42
2024-03-02T13:05:21.179Z,3.33
2024-03-02T13:07:51.857Z,3.30
2024-03-02T13:10:19.572Z,2.83
2024-03-02T13:12:47.307Z,3.22
2024-03-02T13:15:17.752Z,2.97
2024-03-02T13:17:47.543Z,3.20
2024-03-02T13:20:15.777Z,2.72
2024-03-02T13:22:43.235Z,2.58
2024-03-02T13:25:12.685Z,2.75
2024-03-02T13:27:40.304Z,2.50
2024-03-02T13:30:09.513Z,2.90
2024-03-02T13:32:36.702Z,2.00
2024-03-02T13:35:04.188Z,2.10
2024-03-02T13:37:31.615Z,2.65
2024-03-02T13:39:58.527Z,2.40
2024-03-02T13:42:25.680Z,2.80
2024-03-02T13:44:53.695Z,2.50
2024-03-02T13:47:22.305Z,2.20
2024-03-02T13:49:50.285Z,1.95
2024-03-02T13:52:20.273Z,1.98
2024-03-02T13:54:48.932Z,2.55
2024-03-02T13:57:16.314Z,2.17
2024-03-02T13:59:44.853Z,1.85
2024-03-02T14:02:13.784Z,2.20
2024-03-02T14:04:41.236Z,1.73
2024-03-02T14:07:09.208Z,1.90
2024-03-02T14:09:37.262Z,1.98
2024-03-02T14:12:06.743Z,2.00
2024-03-02T14:14:34.283Z,1.80
2024-03-02T14:17:05.241Z,1.65
2024-03-02T14:19:32.469Z,1.05
2024-03-02T14:21:59.949Z,1.38
2024-03-02T14:24:27.645Z,1.00
2024-03-02T14:27:00.803Z,1.55
2024-03-02T14:29:30.449Z,1.63
2024-03-02T14:31:57.388Z,1.77
2024-03-02T14:34:24.425Z,1.45
2024-03-02T14:36:51.398Z,1.35
2024-03-02T14:39:20.174Z,1.35
2024-03-02T14:41:47.187Z,1.58
2024-03-02T14:44:14.076Z,1.40
2024-03-02T14:46:42.146Z,1.38
2024-03-02T14:49:09.825Z,1.10
2024-03-02T14:51:36.824Z,1.45
2024-03-02T14:54:04.275Z,1.08
2024-03-02T14:56:31.303Z,1.00
2024-03-02T14:58:58.345Z,0.98
2024-03-02T15:01:26.073Z,1.10
2024-03-02T15:03:53.791Z,0.90
2024-03-02T15:06:20.777Z,1.00
2024-03-02T15:08:47.705Z,1.02
2024-03-02T15:11:14.702Z,1.05
2024-03-02T15:13:41.854Z,1.10
2024-03-02T15:16:08.865Z,1.00
2024-03-02T15:18:36.462Z,0.77
2024-03-02T15:21:03.422Z,1.20
2024-03-02T15:23:31.287Z,1.00
2024-03-02T15:25:58.230Z,0.90
2024-03-02T15:28:25.215Z,1.10
2024-03-02T15:30:55.040Z,0.65
2024-03-02T15:33:26.911Z,0.65
2024-03-02T15:35:56.671Z,0.55
2024-03-02T15:38:32.557Z,0.82
2024-03-02T15:41:01.332Z,0.90
2024-03-02T15:43:28.248Z,0.60
2024-03-02T15:45:55.245Z,0.65
2024-03-02T15:48:22.377Z,1.10
2024-03-02T15:50:49.457Z,0.77
2024-03-02T15:53:16.425Z,1.05
2024-03-02T15:55:43.447Z,0.85
2024-03-02T15:58:10.816Z,1.00
2024-03-02T16:00:38.121Z,1.00
2024-03-02T16:03:05.262Z,0.85
2024-03-02T16:05:32.193Z,1.20
2024-03-02T16:07:59.652Z,1.13
2024-03-02T16:10:27.098Z,1.27
2024-03-02T16:12:54.811Z,1.83
2024-03-02T16:15:21.827Z,1.27
2024-03-02T16:17:48.616Z,1.30
2024-03-02T16:20:15.702Z,4.70
2024-03-02T16:22:42.612Z,1.85
2024-03-02T16:25:10.259Z,1.65
2024-03-02T16:27:37.291Z,1.70
2024-03-02T16:30:04.942Z,1.50
2024-03-02T16:32:32.139Z,1.10
2024-03-02T16:34:59.399Z,2.00
2024-03-02T16:37:27.519Z,1.10
2024-03-02T16:39:54.631Z,1.40
2024-03-02T16:42:21.576Z,1.25
2024-03-02T16:44:49.537Z,1.67
2024-03-02T16:47:16.741Z,1.65
2024-03-02T16:49:46.656Z,1.60
2024-03-02T16:52:15.514Z,2.00
2024-03-02T16:54:42.459Z,2.00
2024-03-02T16:57:11.089Z,1.80
2024-03-02T16:59:37.960Z,2.22
2024-03-02T17:02:05.471Z,2.38
2024-03-02T17:04:34.444Z,2.47
2024-03-02T17:07:01.557Z,2.83
2024-03-02T17:09:28.535Z,2.42
2024-03-02T17:11:55.488Z,3.20
2024-03-02T17:14:22.299Z,2.90
2024-03-02T17:16:50.989Z,2.50
2024-03-02T17:19:18.261Z,2.40
2024-03-02T17:21:45.279Z,2.63
2024-03-02T17:24:12.133Z,2.47
2024-03-02T17:26:41.059Z,2.55
2024-03-02T17:29:08.057Z,2.58
2024-03-02T17:31:34.943Z,2.60
2024-03-02T17:34:01.829Z,2.58
2024-03-02T17:36:28.726Z,2.97
2024-03-02T17:38:56.560Z,3.13
2024-03-02T17:41:23.776Z,3.10
2024-03-02T17:43:50.685Z,2.70
2024-03-02T17:46:17.622Z,3.05
2024-03-02T17:48:44.932Z,2.90
2024-03-02T17:51:11.937Z,3.22
2024-03-02T17:53:38.790Z,3.63
2024-03-02T17:56:06.730Z,2.90
2024-03-02T17:58:34.018Z,2.92
2024-03-02T18:01:00.912Z,2.33
2024-03-02T18:03:27.919Z,3.15
2024-03-02T18:05:54.925Z,2.92
2024-03-02T18:08:22.098Z,2.75
2024-03-02T18:10:49.097Z,3.33
2024-03-02T18:13:16.862Z,2.80
2024-03-02T18:15:43.920Z,3.55
2024-03-02T18:18:11.568Z,2.88
2024-03-02T18:20:39.449Z,3.17
2024-03-02T18:23:06.864Z,2.67
2024-03-02T18:25:33.952Z,3.17
2024-03-02T18:28:01.066Z,3.53
2024-03-02T18:30:28.060Z,14.13
2024-03-02T18:32:54.886Z,12.57
2024-03-02T18:35:21.906Z,11.98
2024-03-02T18:37:48.815Z,11.77
2024-03-02T18:40:16.131Z,15.85
2024-03-02T18:42:43.187Z,14.82
2024-03-02T18:45:10.224Z,7.43
2024-03-02T18:47:39.207Z,3.00
2024-03-02T18:50:09.706Z,3.05
2024-03-02T18:52:37.473Z,3.05
2024-03-02T18:55:05.784Z,3.40
2024-03-02T18:57:32.795Z,3.17
2024-03-02T18:59:59.902Z,3.33
2024-03-02T19:02:26.973Z,2.80
2024-03-02T19:04:54.001Z,2.85
2024-03-02T19:07:20.991Z,2.90
2024-03-02T19:09:47.991Z,2.80
2024-03-02T19:12:15.026Z,3.00
2024-03-02T19:14:41.877Z,3.47
2024-03-02T19:17:08.777Z,3.45
2024-03-02T19:19:35.981Z,2.67
2024-03-02T19:22:08.298Z,2.85
2024-03-02T19:24:39.347Z,2.95
2024-03-02T19:27:06.876Z,3.50
2024-03-02T19:29:33.924Z,3.05
2024-03-02T19:32:05.359Z,3.20
2024-03-02T19:34:35.406Z,2.80
2024-03-02T19:37:02.692Z,3.30
2024-03-02T19:39:30.876Z,3.50
2024-03-02T19:42:00.606Z,3.42
2024-03-02T19:44:32.772Z,3.30
2024-03-02T19:47:00.329Z,3.13
2024-03-02T19:49:27.390Z,3.45
2024-03-02T19:51:54.397Z,3.25
2024-03-02T19:54:21.405Z,3.80
2024-03-02T19:56:48.600Z,3.80
2024-03-02T19:59:15.785Z,3.55
2024-03-02T20:01:42.972Z,3.30
2024-03-02T20:04:11.126Z,2.85
2024-03-02T20:06:39.700Z,2.53
2024-03-02T20:09:07.078Z,2.00
2024-03-02T20:11:34.855Z,2.10
2024-03-02T20:14:02.029Z,2.95
2024-03-02T20:16:29.037Z,2.10
2024-03-02T20:18:56.043Z,2.13
2024-03-02T20:21:23.418Z,1.85
2024-03-02T20:23:50.418Z,1.80
2024-03-02T20:26:20.318Z,1.92
2024-03-02T20:28:49.406Z,1.90
2024-03-02T20:31:16.367Z,1.98
2024-03-02T20:33:43.437Z,2.13
2024-03-02T20:36:14.944Z,2.38
2024-03-02T20:38:42.419Z,2.03
2024-03-02T20:41:17.250Z,2.97
2024-03-02T20:43:44.530Z,3.10
2024-03-02T20:46:11.996Z,3.05
2024-03-02T20:48:40.099Z,3.13
2024-03-02T20:51:07.683Z,2.88
2024-03-02T20:53:34.739Z,3.08
2024-03-02T20:56:02.059Z,2.95
2024-03-02T20:58:29.235Z,3.60
2024-03-02T21:00:56.433Z,4.38
2024-03-02T21:03:23.661Z,3.75
2024-03-02T21:05:50.835Z,4.05
2024-03-02T21:08:17.663Z,4.75
2024-03-02T21:10:46.963Z,4.82
2024-03-02T21:13:15.418Z,4.72
2024-03-02T21:15:42.579Z,4.05
2024-03-02T21:18:09.422Z,4.65
2024-03-02T21:20:36.414Z,4.18
2024-03-02T21:23:03.333Z,4.25
2024-03-02T21:25:35.134Z,5.20
2024-03-02T21:28:02.371Z,5.57
2024-03-02T21:30:33.836Z,5.40
2024-03-02T21:33:00.757Z,4.25
2024-03-02T21:35:28.874Z,4.85
2024-03-02T21:37:56.267Z,4.72
2024-03-02T21:40:23.192Z,4.97
2024-03-02T21:42:52.183Z,4.72
2024-03-02T21:45:19.306Z,5.13
2024-03-02T21:47:47.302Z,4.55
2024-03-02T21:50:15.672Z,4.50
2024-03-02T21:52:42.702Z,4.82
2024-03-02T21:55:10.299Z,4.75
2024-03-02T21:57:38.444Z,4.90
2024-03-02T22:00:06.203Z,6.03
2024-03-02T22:02:33.327Z,4.78
2024-03-02T22:05:00.433Z,4.57
2024-03-02T22:07:27.394Z,4.60
2024-03-02T22:09:54.841Z,5.07
2024-03-02T22:12:21.930Z,4.80
2024-03-02T22:14:49.041Z,5.88
2024-03-02T22:17:16.099Z,4.30
2024-03-02T22:19:43.030Z,6.63
2024-03-02T22:22:10.166Z,4.30
2024-03-02T22:24:37.255Z,4.13
2024-03-02T22:27:04.205Z,4.38
2024-03-02T22:29:31.002Z,4.30
2024-03-02T22:31:57.986Z,4.97
2024-03-02T22:34:25.072Z,4.47
2024-03-02T22:36:52.029Z,4.40
2024-03-02T22:39:18.950Z,4.65
2024-03-02T22:41:45.882Z,5.63
2024-03-02T22:44:12.711Z,5.10
2024-03-02T22:46:39.576Z,5.82
2024-03-02T22:49:07.034Z,5.15
2024-03-02T22:51:34.089Z,4.90
2024-03-02T22:54:00.925Z,5.63
2024-03-02T22:56:27.737Z,4.95
2024-03-02T22:58:54.712Z,5.68
2024-03-02T23:01:24.002Z,5.15
2024-03-02T23:03:50.980Z,5.30
2024-03-02T23:06:20.633Z,5.75
2024-03-02T23:08:47.746Z,5.95
2024-03-02T23:11:14.738Z,7.95
2024-03-02T23:13:41.633Z,7.93
2024-03-02T23:16:08.554Z,8.15
2024-03-02T23:18:35.632Z,7.57
2024-03-02T23:21:02.655Z,10.30
2024-03-02T23:23:29.575Z,7.05
2024-03-02T23:25:56.498Z,10.35
2024-03-02T23:28:23.418Z,10.88
2024-03-02T23:30:50.376Z,9.40
2024-03-02T23:33:17.274Z,9.57
2024-03-02T23:35:44.083Z,9.77
2024-03-02T23:38:11.198Z,21.25
2024-03-02T23:40:38.064Z,15.55
2024-03-02T23:43:05.826Z,17.05
2024-03-02T23:45:33.014Z,13.65
2024-03-02T23:48:00.093Z,14.63
2024-03-02T23:50:26.987Z,11.70
2024-03-02T23:52:53.851Z,11.48
2024-03-02T23:55:21.915Z,10.18
2024-03-02T23:57:50.124Z,10.52
